createdAt,value
2019-04-07T00:01:54.571Z,97594.40
2019-04-07T00:04:23.716Z,97599.46
2019-04-07T00:06:52.526Z,97599.00
2019-04-07T00:09:23.220Z,97593.75
2019-04-07T00:11:52.021Z,97598.30
2019-04-07T00:14:20.765Z,97597.27
2019-04-07T00:16:49.725Z,97601.06
2019-04-07T00:19:18.649Z,97597.74
2019-04-07T00:21:47.898Z,97603.58
2019-04-07T00:24:16.744Z,97603.55
2019-04-07T00:26:45.421Z,97603.69
2019-04-07T00:29:14.498Z,97603.80
2019-04-07T00:31:43.211Z,97606.28
2019-04-07T00:34:12.147Z,97597.51
2019-04-07T00:36:40.930Z,97596.23
2019-04-07T00:39:09.694Z,97594.88
2019-04-07T00:41:38.733Z,97595.57
2019-04-07T00:44:07.461Z,97595.80
2019-04-07T00:46:37.130Z,97602.20
2019-04-07T00:49:05.873Z,97600.69
2019-04-07T00:51:34.576Z,97600.34
2019-04-07T00:54:03.490Z,97604.57
2019-04-07T00:56:32.479Z,97602.88
2019-04-07T00:59:02.862Z,97596.69
2019-04-07T01:01:31.791Z,97602.07
2019-04-07T01:04:02.181Z,97593.37
2019-04-07T01:06:31.105Z,97597.17
2019-04-07T01:09:00.252Z,97592.14
2019-04-07T01:11:29.381Z,97598.28
2019-04-07T01:13:58.221Z,97593.98
2019-04-07T01:16:27.371Z,97594.63
2019-04-07T01:18:56.011Z,97596.25
2019-04-07T01:21:25.825Z,97594.16
2019-04-07T01:23:54.538Z,97595.69
2019-04-07T01:26:23.894Z,97594.40
2019-04-07T01:28:54.511Z,97598.07
2019-04-07T01:31:23.155Z,97599.89
2019-04-07T01:33:52.169Z,97601.73
2019-04-07T01:36:21.474Z,97601.95
2019-04-07T01:38:51.167Z,97604.69
2019-04-07T01:41:38.278Z,97605.85
2019-04-07T01:44:18.074Z,97607.47
2019-04-07T01:46:59.503Z,97608.69
2019-04-07T01:49:46.811Z,97606.19
2019-04-07T01:52:33.711Z,97607.43
2019-04-07T01:55:19.463Z,97600.83
2019-04-07T01:58:09.821Z,97601.86
2019-04-07T02:00:45.869Z,97593.97
2019-04-07T02:03:32.887Z,97594.33
2019-04-07T02:06:19.776Z,97593.28
2019-04-07T02:09:06.096Z,97591.59
2019-04-07T02:11:53.057Z,97597.39
2019-04-07T02:14:31.299Z,97586.53
2019-04-07T02:17:18.259Z,97585.85
2019-04-07T02:19:57.481Z,97593.27
2019-04-07T02:22:54.687Z,97593.97
2019-04-07T02:25:42.763Z,97594.41
2019-04-07T02:28:27.685Z,97600.34
2019-04-07T02:31:17.450Z,97604.02
2019-04-07T02:34:17.735Z,97604.92
2019-04-07T02:36:58.130Z,97600.80
2019-04-07T02:39:39.134Z,97601.26
2019-04-07T02:42:15.388Z,97600.19
2019-04-07T02:45:03.683Z,97598.71
2019-04-07T02:47:46.950Z,97602.80
2019-04-07T02:50:26.644Z,97604.86
2019-04-07T02:53:03.722Z,97606.05
2019-04-07T02:56:03.674Z,97602.50
2019-04-07T02:58:49.953Z,97604.54
2019-04-07T03:01:27.927Z,97606.47
2019-04-07T03:04:20.807Z,97606.16
2019-04-07T03:07:02.835Z,97601.86
2019-04-07T03:09:47.503Z,97606.23
2019-04-07T03:12:27.588Z,97609.41
2019-04-07T03:15:19.244Z,97609.41
2019-04-07T03:18:06.960Z,97605.97
2019-04-07T03:20:45.741Z,97605.75
2019-04-07T03:23:42.515Z,97608.98
2019-04-07T03:26:41.118Z,97610.32
2019-04-07T03:29:23.780Z,97610.75
2019-04-07T03:32:15.821Z,97607.09
2019-04-07T03:35:06.435Z,97613.73
2019-04-07T03:37:53.380Z,97608.22
2019-04-07T03:40:37.146Z,97612.54
2019-04-07T03:43:19.403Z,97606.45
2019-04-07T03:45:55.303Z,97607.02
2019-04-07T03:48:38.031Z,97608.17
2019-04-07T03:51:15.183Z,97605.65
2019-04-07T03:54:07.061Z,97596.28
2019-04-07T03:56:56.534Z,97605.06
2019-04-07T03:59:53.777Z,97604.99
2019-04-07T04:02:39.281Z,97599.23
2019-04-07T04:05:26.116Z,97601.97
2019-04-07T04:08:07.457Z,97604.33
2019-04-07T04:10:58.083Z,97602.95
2019-04-07T04:13:35.961Z,97603.20
2019-04-07T04:16:11.146Z,97602.32
2019-04-07T04:18:40.627Z,97601.03
2019-04-07T04:21:09.629Z,97607.17
2019-04-07T04:23:41.543Z,97607.98
2019-04-07T04:26:09.662Z,97598.78
2019-04-07T04:28:39.020Z,97601.72
2019-04-07T04:31:07.945Z,97604.49
2019-04-07T04:33:37.728Z,97603.23
2019-04-07T04:36:07.950Z,97606.42
2019-04-07T04:38:37.037Z,97614.17
2019-04-07T04:41:06.877Z,97619.14
2019-04-07T04:43:36.024Z,97612.98
2019-04-07T04:46:08.670Z,97621.38
2019-04-07T04:48:36.051Z,97630.17
2019-04-07T04:51:05.356Z,97628.61
2019-04-07T04:53:34.902Z,97630.56
2019-04-07T04:56:03.849Z,97631.59
2019-04-07T04:58:32.794Z,97634.90
2019-04-07T05:01:02.257Z,97639.63
2019-04-07T05:03:31.800Z,97645.02
2019-04-07T05:06:01.407Z,97649.48
2019-04-07T05:08:31.166Z,97654.02
2019-04-07T05:10:59.992Z,97654.23
2019-04-07T05:13:28.636Z,97656.21
2019-04-07T05:15:57.361Z,97655.48
2019-04-07T05:18:26.849Z,97655.42
2019-04-07T05:20:55.590Z,97658.06
2019-04-07T05:23:25.116Z,97641.81
2019-04-07T05:25:54.505Z,97652.56
2019-04-07T05:28:23.525Z,97663.14
2019-04-07T05:30:53.388Z,97662.67
2019-04-07T05:33:22.166Z,97662.07
2019-04-07T05:35:51.633Z,97660.94
2019-04-07T05:38:20.324Z,97659.30
2019-04-07T05:40:50.036Z,97669.53
2019-04-07T05:43:19.301Z,97661.11
2019-04-07T05:45:47.949Z,97669.36
2019-04-07T05:48:19.551Z,97671.25
2019-04-07T05:50:47.374Z,97678.27
2019-04-07T05:53:17.014Z,97673.27
2019-04-07T05:55:46.873Z,97680.23
2019-04-07T05:58:16.212Z,97675.33
2019-04-07T06:00:46.960Z,97685.31
2019-04-07T06:03:16.291Z,97686.48
2019-04-07T06:05:49.184Z,97687.06
2019-04-07T06:08:25.759Z,97689.69
2019-04-07T06:10:46.380Z,97687.46
2019-04-07T06:13:15.742Z,97684.09
2019-04-07T06:15:45.739Z,97687.56
2019-04-07T06:18:14.988Z,97684.04
2019-04-07T06:20:45.355Z,97688.92
2019-04-07T06:23:14.166Z,97687.66
2019-04-07T06:25:43.974Z,97690.56
2019-04-07T06:28:16.329Z,97693.09
2019-04-07T06:30:43.996Z,97694.04
2019-04-07T06:33:18.768Z,97689.69
2019-04-07T06:35:47.875Z,97689.91
2019-04-07T06:38:16.735Z,97685.45
2019-04-07T06:40:45.935Z,97689.45
2019-04-07T06:43:15.651Z,97690.17
2019-04-07T06:45:52.738Z,97694.73
2019-04-07T06:48:21.240Z,97693.70
2019-04-07T06:51:03.876Z,97692.34
2019-04-07T06:53:53.656Z,97697.05
2019-04-07T06:56:32.186Z,97701.42
2019-04-07T06:59:11.871Z,97695.48
2019-04-07T07:01:58.694Z,97697.77
2019-04-07T07:04:37.712Z,97693.76
2019-04-07T07:07:28.232Z,97700.93
2019-04-07T07:10:06.783Z,97700.03
2019-04-07T07:12:43.889Z,97697.83
2019-04-07T07:15:34.480Z,97701.91
2019-04-07T07:18:54.794Z,97704.12
2019-04-07T07:21:42.523Z,97711.53
2019-04-07T07:24:12.328Z,97706.41
2019-04-07T07:26:42.845Z,97712.03
2019-04-07T07:29:14.699Z,97703.84
2019-04-07T07:31:43.615Z,97713.34
2019-04-07T07:34:12.308Z,97709.84
2019-04-07T07:36:41.727Z,97711.33
2019-04-07T07:39:12.558Z,97711.76
2019-04-07T07:41:41.441Z,97710.89
2019-04-07T07:44:10.233Z,97711.44
2019-04-07T07:46:39.735Z,97715.09
2019-04-07T07:49:08.584Z,97720.22
2019-04-07T07:51:40.544Z,97717.57
2019-04-07T07:54:14.175Z,97714.52
2019-04-07T07:56:48.598Z,97712.91
2019-04-07T07:59:17.904Z,97715.97
2019-04-07T08:01:50.316Z,97713.41
2019-04-07T08:04:18.420Z,97714.02
2019-04-07T08:06:48.054Z,97720.16
2019-04-07T08:09:22.029Z,97723.12
2019-04-07T08:11:47.846Z,97723.28
2019-04-07T08:14:24.594Z,97729.89
2019-04-07T08:16:53.365Z,97727.14
2019-04-07T08:19:26.013Z,97730.37
2019-04-07T08:21:54.109Z,97728.20
2019-04-07T08:24:23.283Z,97732.73
2019-04-07T08:26:56.302Z,97733.14
2019-04-07T08:29:22.967Z,97732.95
2019-04-07T08:31:55.222Z,97728.00
2019-04-07T08:34:22.308Z,97729.62
2019-04-07T08:36:51.099Z,97729.25
2019-04-07T08:39:25.160Z,97731.52
2019-04-07T08:41:51.809Z,97729.94
2019-04-07T08:44:20.553Z,97736.45
2019-04-07T08:46:49.688Z,97733.39
2019-04-07T08:49:19.209Z,97735.44
2019-04-07T08:51:50.573Z,97731.00
2019-04-07T08:54:19.955Z,97725.97
2019-04-07T08:56:48.711Z,97727.21
2019-04-07T08:59:18.298Z,97731.81
2019-04-07T09:01:47.720Z,97729.52
2019-04-07T09:04:18.155Z,97729.14
2019-04-07T09:06:48.775Z,97729.44
2019-04-07T09:09:17.893Z,97727.45
2019-04-07T09:11:47.065Z,97730.94
2019-04-07T09:14:17.367Z,97726.99
2019-04-07T09:17:29.309Z,97723.92
2019-04-07T09:20:10.751Z,97728.32
2019-04-07T09:22:51.554Z,97739.03
2019-04-07T09:25:39.996Z,97727.01
2019-04-07T09:28:26.495Z,97732.26
2019-04-07T09:31:14.918Z,97728.13
2019-04-07T09:33:49.947Z,97728.67
2019-04-07T09:36:38.146Z,97736.97
2019-04-07T09:39:39.461Z,97732.35
2019-04-07T09:42:11.295Z,97692.12
2019-04-07T09:44:47.349Z,97741.73
2019-04-07T09:47:38.142Z,97739.42
2019-04-07T09:50:41.960Z,97737.43
2019-04-07T09:53:29.612Z,97743.34
2019-04-07T09:56:19.104Z,97739.30
2019-04-07T09:58:56.807Z,97738.77
2019-04-07T10:01:32.921Z,97736.87
2019-04-07T10:04:42.564Z,97736.55
2019-04-07T10:07:25.662Z,97737.67
2019-04-07T10:10:17.151Z,97733.69
2019-04-07T10:13:05.593Z,97741.36
2019-04-07T10:15:51.010Z,97735.08
2019-04-07T10:18:40.171Z,97731.81
2019-04-07T10:21:37.158Z,97730.81
2019-04-07T10:24:18.543Z,97730.48
2019-04-07T10:26:58.858Z,97733.20
2019-04-07T10:29:37.685Z,97729.77
2019-04-07T10:32:25.815Z,97723.70
2019-04-07T10:35:19.588Z,97733.09
2019-04-07T10:38:07.460Z,97723.55
2019-04-07T10:40:43.852Z,97725.77
2019-04-07T10:43:28.933Z,97722.98
2019-04-07T10:46:08.742Z,97724.11
2019-04-07T10:49:14.665Z,97726.38
2019-04-07T10:51:53.384Z,97720.27
2019-04-07T10:54:35.644Z,97718.31
2019-04-07T10:57:24.265Z,97718.59
2019-04-07T11:00:07.469Z,97720.13
2019-04-07T11:02:44.289Z,97714.84
2019-04-07T11:05:48.023Z,97713.23
2019-04-07T11:08:51.782Z,97711.12
2019-04-07T11:11:33.185Z,97710.02
2019-04-07T11:14:12.028Z,97708.67
2019-04-07T11:16:49.934Z,97715.56
2019-04-07T11:19:37.702Z,97709.44
2019-04-07T11:22:25.566Z,97712.64
2019-04-07T11:25:17.128Z,97714.44
2019-04-07T11:28:17.839Z,97713.67
2019-04-07T11:30:54.328Z,97714.91
2019-04-07T11:33:41.412Z,97712.39
2019-04-07T11:36:18.767Z,97718.45
2019-04-07T11:38:51.732Z,97719.61
2019-04-07T11:41:29.387Z,97716.92
2019-04-07T11:44:05.367Z,97716.25
2019-04-07T11:46:58.051Z,97720.69
2019-04-07T11:49:32.815Z,97712.83
2019-04-07T11:52:08.173Z,97708.64
2019-04-07T11:54:49.542Z,97708.28
2019-04-07T11:57:27.836Z,97708.17
2019-04-07T12:00:14.638Z,97709.41
2019-04-07T12:02:54.500Z,97711.38
2019-04-07T12:05:52.247Z,97715.33
2019-04-07T12:08:32.368Z,97717.64
2019-04-07T12:11:08.419Z,97712.23
2019-04-07T12:13:46.731Z,97714.95
2019-04-07T12:16:35.087Z,97716.57
2019-04-07T12:19:11.292Z,97717.95
2019-04-07T12:22:10.412Z,97721.02
2019-04-07T12:24:57.488Z,97716.66
2019-04-07T12:27:44.592Z,97716.83
2019-04-07T12:30:31.610Z,97723.89
2019-04-07T12:33:19.078Z,97718.00
2019-04-07T12:36:10.360Z,97720.83
2019-04-07T12:39:08.280Z,97716.27
2019-04-07T12:41:57.244Z,97719.83
2019-04-07T12:44:41.823Z,97719.05
2019-04-07T12:47:23.785Z,97715.70
2019-04-07T12:50:02.572Z,97719.90
2019-04-07T12:52:48.771Z,97709.95
2019-04-07T12:55:36.144Z,97705.19
2019-04-07T12:58:13.272Z,97709.94
2019-04-07T13:01:09.593Z,97704.78
2019-04-07T13:03:39.548Z,97701.63
2019-04-07T13:06:35.261Z,97701.61
2019-04-07T13:09:16.185Z,97703.22
2019-04-07T13:12:24.706Z,97699.05
2019-04-07T13:15:14.073Z,97703.41
2019-04-07T13:18:05.790Z,97696.05
2019-04-07T13:20:49.239Z,97692.69
2019-04-07T13:23:33.000Z,97698.03
2019-04-07T13:26:14.231Z,97685.69
2019-04-07T13:29:14.611Z,97694.66
2019-04-07T13:32:01.315Z,97689.70
2019-04-07T13:34:49.776Z,97690.50
2019-04-07T13:37:42.182Z,97686.94
2019-04-07T13:40:36.235Z,97687.53
2019-04-07T13:43:18.701Z,97682.16
2019-04-07T13:46:30.652Z,97688.30
2019-04-07T13:49:11.810Z,97683.37
2019-04-07T13:52:17.569Z,97685.73
2019-04-07T13:54:56.948Z,97678.58
2019-04-07T13:58:00.435Z,97690.50
2019-04-07T14:00:47.915Z,97687.92
2019-04-07T14:03:25.508Z,97686.52
2019-04-07T14:06:17.581Z,97680.14
2019-04-07T14:08:57.624Z,97686.50
2019-04-07T14:12:00.270Z,97679.19
2019-04-07T14:14:41.281Z,97684.52
2019-04-07T14:17:20.809Z,97678.80
2019-04-07T14:20:03.901Z,97677.39
2019-04-07T14:22:58.143Z,97680.95
2019-04-07T14:25:45.339Z,97678.58
2019-04-07T14:28:31.585Z,97669.66
2019-04-07T14:31:25.182Z,97672.22
2019-04-07T14:34:03.963Z,97671.61
2019-04-07T14:36:50.455Z,97671.45
2019-04-07T14:39:30.300Z,97669.05
2019-04-07T14:42:20.863Z,97670.86
2019-04-07T14:44:55.577Z,97669.44
2019-04-07T14:47:41.432Z,97670.83
2019-04-07T14:50:25.233Z,97675.21
2019-04-07T14:53:16.501Z,97675.39
2019-04-07T14:56:04.591Z,97674.41
2019-04-07T14:58:51.090Z,97675.81
2019-04-07T15:01:44.735Z,97679.38
2019-04-07T15:04:14.078Z,97677.37
2019-04-07T15:06:42.845Z,97671.42
2019-04-07T15:09:27.070Z,97677.20
2019-04-07T15:12:01.600Z,97676.20
2019-04-07T15:14:32.686Z,97676.98
2019-04-07T15:17:01.368Z,97675.40
2019-04-07T15:19:31.062Z,97676.77
2019-04-07T15:22:02.310Z,97680.51
2019-04-07T15:24:30.715Z,97680.08
2019-04-07T15:27:00.366Z,97682.86
2019-04-07T15:29:29.943Z,97689.80
2019-04-07T15:31:59.689Z,97680.72
2019-04-07T15:34:29.649Z,97686.24
2019-04-07T15:36:59.071Z,97686.80
2019-04-07T15:39:30.309Z,97687.61
2019-04-07T15:41:58.579Z,97683.32
2019-04-07T15:44:27.260Z,97684.66
2019-04-07T15:46:56.568Z,97686.24
2019-04-07T15:49:27.376Z,97683.67
2019-04-07T15:51:56.170Z,97689.20
2019-04-07T15:54:25.429Z,97692.40
2019-04-07T15:56:55.020Z,97698.33
2019-04-07T15:59:24.811Z,97697.91
2019-04-07T16:01:56.189Z,97696.11
2019-04-07T16:04:28.373Z,97695.48
2019-04-07T16:06:56.611Z,97697.82
2019-04-07T16:09:35.918Z,97693.02
2019-04-07T16:11:58.291Z,97692.98
2019-04-07T16:14:27.420Z,97702.23
2019-04-07T16:17:00.301Z,97699.67
2019-04-07T16:19:37.370Z,97708.02
2019-04-07T16:22:04.804Z,97701.33
2019-04-07T16:24:33.488Z,97697.78
2019-04-07T16:27:05.409Z,97706.42
2019-04-07T16:29:33.038Z,97707.56
2019-04-07T16:32:02.980Z,97712.31
2019-04-07T16:34:32.042Z,97714.50
2019-04-07T16:37:03.881Z,97719.24
2019-04-07T16:39:34.617Z,97707.13
2019-04-07T16:42:03.257Z,97711.17
2019-04-07T16:44:36.277Z,97714.71
2019-04-07T16:47:04.122Z,97715.95
2019-04-07T16:49:32.916Z,97710.00
2019-04-07T16:52:03.421Z,97715.59
2019-04-07T16:54:32.688Z,97712.55
2019-04-07T16:57:02.032Z,97717.67
2019-04-07T16:59:31.695Z,97715.06
2019-04-07T17:02:00.809Z,97729.05
2019-04-07T17:04:30.040Z,97725.95
2019-04-07T17:07:04.015Z,97721.22
2019-04-07T17:09:30.165Z,97730.59
2019-04-07T17:11:58.994Z,97733.39
2019-04-07T17:14:34.470Z,97735.33
2019-04-07T17:17:00.977Z,97728.84
2019-04-07T17:19:30.131Z,97726.47
2019-04-07T17:22:01.812Z,97736.91
2019-04-07T17:24:30.629Z,97741.69
2019-04-07T17:27:00.488Z,97740.13
2019-04-07T17:29:30.147Z,97744.20
2019-04-07T17:32:01.686Z,97742.66
2019-04-07T17:34:30.442Z,97743.94
2019-04-07T17:36:59.211Z,97747.27
2019-04-07T17:39:44.986Z,97748.25
2019-04-07T17:42:15.540Z,97755.17
2019-04-07T17:45:02.165Z,97754.94
2019-04-07T17:47:50.165Z,97758.42
2019-04-07T17:50:36.921Z,97760.25
2019-04-07T17:53:15.781Z,97759.52
2019-04-07T17:56:01.265Z,97764.97
2019-04-07T17:58:44.216Z,97767.56
2019-04-07T18:01:32.111Z,97768.92
2019-04-07T18:04:17.336Z,97772.76
2019-04-07T18:07:06.215Z,97775.72
2019-04-07T18:09:43.849Z,97776.68
2019-04-07T18:12:38.954Z,97779.64
2019-04-07T18:15:27.436Z,97784.94
2019-04-07T18:18:21.166Z,97782.20
2019-04-07T18:20:54.085Z,97794.25
2019-04-07T18:24:01.197Z,97794.81
2019-04-07T18:26:40.460Z,97804.05
2019-04-07T18:29:20.122Z,97801.70
2019-04-07T18:32:17.647Z,97801.91
2019-04-07T18:35:07.607Z,97805.98
2019-04-07T18:37:48.350Z,97810.06
2019-04-07T18:40:33.833Z,97814.06
2019-04-07T18:43:21.440Z,97817.83
2019-04-07T18:46:24.900Z,97820.44
2019-04-07T18:49:09.117Z,97827.77
2019-04-07T18:51:53.733Z,97833.72
2019-04-07T18:54:47.959Z,97837.28
2019-04-07T18:57:36.058Z,97847.65
2019-04-07T19:00:24.549Z,97847.19
2019-04-07T19:03:10.529Z,97847.13
2019-04-07T19:05:53.357Z,97850.79
2019-04-07T19:08:37.235Z,97855.20
2019-04-07T19:11:28.251Z,97862.42
2019-04-07T19:14:26.838Z,97864.47
2019-04-07T19:16:49.316Z,97858.80
2019-04-07T19:19:34.381Z,97859.06
2019-04-07T19:22:24.777Z,97859.87
2019-04-07T19:25:13.102Z,97865.41
2019-04-07T19:28:04.476Z,97862.72
2019-04-07T19:30:46.172Z,97866.23
2019-04-07T19:33:32.345Z,97864.44
2019-04-07T19:36:17.447Z,97864.85
2019-04-07T19:38:54.301Z,97869.68
2019-04-07T19:41:31.512Z,97866.74
2019-04-07T19:44:08.333Z,97868.59
2019-04-07T19:46:43.881Z,97873.20
2019-04-07T19:49:37.605Z,97873.13
2019-04-07T19:52:36.269Z,97873.41
2019-04-07T19:55:30.392Z,97870.77
2019-04-07T19:58:38.608Z,97871.34
2019-04-07T20:01:27.393Z,97868.38
2019-04-07T20:04:32.738Z,97868.28
2019-04-07T20:07:20.188Z,97869.53
2019-04-07T20:10:01.779Z,97871.30
2019-04-07T20:12:56.257Z,97872.02
2019-04-07T20:15:45.043Z,97876.69
2019-04-07T20:18:26.914Z,97872.55
2019-04-07T20:21:02.952Z,97879.50
2019-04-07T20:23:50.739Z,97877.45
2019-04-07T20:26:37.315Z,97879.27
2019-04-07T20:29:33.850Z,97882.97
2019-04-07T20:32:16.976Z,97879.38
2019-04-07T20:34:59.086Z,97875.95
2019-04-07T20:37:47.190Z,97875.45
2019-04-07T20:40:39.649Z,97885.45
2019-04-07T20:43:25.423Z,97878.16
2019-04-07T20:46:27.419Z,97883.23
2019-04-07T20:49:30.806Z,97881.70
2019-04-07T20:52:42.782Z,97880.89
2019-04-07T20:55:20.963Z,97879.91
2019-04-07T20:58:21.613Z,97887.08
2019-04-07T21:01:17.636Z,97883.00
2019-04-07T21:03:53.108Z,97884.70
2019-04-07T21:06:52.374Z,97881.36
2019-04-07T21:09:35.808Z,97883.88
2019-04-07T21:12:23.782Z,97883.88
2019-04-07T21:15:18.422Z,97878.81
2019-04-07T21:18:04.168Z,97884.14
2019-04-07T21:20:54.765Z,97888.60
2019-04-07T21:23:36.144Z,97889.77
2019-04-07T21:26:13.468Z,97886.29
2019-04-07T21:28:52.512Z,97883.34
2019-04-07T21:31:46.762Z,97882.41
2019-04-07T21:34:20.803Z,97881.77
2019-04-07T21:37:23.905Z,97882.91
2019-04-07T21:40:26.663Z,97881.66
2019-04-07T21:43:18.891Z,97879.61
2019-04-07T21:46:11.644Z,97879.52
2019-04-07T21:49:06.135Z,97875.27
2019-04-07T21:51:57.245Z,97877.23
2019-04-07T21:54:39.492Z,97877.66
2019-04-07T21:57:33.290Z,97879.92
2019-04-07T22:00:11.108Z,97877.66
2019-04-07T22:02:54.907Z,97883.73
2019-04-07T22:05:29.816Z,97886.41
2019-04-07T22:08:08.021Z,97882.85
2019-04-07T22:10:34.056Z,97881.06
2019-04-07T22:13:04.997Z,97890.81
2019-04-07T22:15:43.934Z,97893.77
2019-04-07T22:18:07.557Z,97892.61
2019-04-07T22:20:34.979Z,97890.91
2019-04-07T22:23:06.228Z,97894.13
2019-04-07T22:25:40.953Z,97890.70
2019-04-07T22:28:10.164Z,97888.30
2019-04-07T22:30:42.367Z,97889.09
2019-04-07T22:33:10.617Z,97896.67
2019-04-07T22:35:42.434Z,97893.69
2019-04-07T22:38:09.819Z,97894.13
2019-04-07T22:40:39.175Z,97896.55
2019-04-07T22:43:08.014Z,97901.57
2019-04-07T22:45:37.161Z,97895.18
2019-04-07T22:48:08.253Z,97894.48
2019-04-07T22:50:38.441Z,97893.92
2019-04-07T22:53:07.380Z,97893.47
2019-04-07T22:55:36.202Z,97893.81
2019-04-07T22:58:05.570Z,97886.47
2019-04-07T23:00:35.140Z,97888.55
2019-04-07T23:03:04.288Z,97892.44
2019-04-07T23:05:33.906Z,97892.20
2019-04-07T23:08:02.715Z,97886.03
2019-04-07T23:10:31.965Z,97894.27
2019-04-07T23:13:01.486Z,97886.84
2019-04-07T23:15:38.648Z,97887.86
2019-04-07T23:18:00.731Z,97888.55
2019-04-07T23:20:29.469Z,97894.03
2019-04-07T23:22:58.450Z,97904.56
2019-04-07T23:25:28.100Z,97899.61
2019-04-07T23:27:56.799Z,97895.59
2019-04-07T23:30:27.885Z,97895.36
2019-04-07T23:32:56.543Z,97896.39
2019-04-07T23:35:25.665Z,97894.95
2019-04-07T23:37:55.396Z,97896.16
2019-04-07T23:40:24.553Z,97895.25
2019-04-07T23:42:53.305Z,97890.52
2019-04-07T23:45:21.982Z,97899.88
2019-04-07T23:47:50.709Z,97900.28
2019-04-07T23:50:19.533Z,97897.50
2019-04-07T23:52:48.297Z,97894.97
2019-04-07T23:55:17.369Z,97897.78
2019-04-07T23:57:46.544Z,97899.39
